createdAt,value
2018-11-03T00:01:01.731Z,3.33
2018-11-03T00:03:29.922Z,3.50
2018-11-03T00:05:58.201Z,4.25
2018-11-03T00:08:26.501Z,3.65
2018-11-03T00:10:54.675Z,3.58
2018-11-03T00:13:23.410Z,3.75
2018-11-03T00:15:51.587Z,3.33
2018-11-03T00:18:19.738Z,3.15
2018-11-03T00:20:47.922Z,3.47
2018-11-03T00:23:16.113Z,3.62
2018-11-03T00:25:44.297Z,3.50
2018-11-03T00:28:12.494Z,3.37
2018-11-03T00:30:40.679Z,3.65
2018-11-03T00:33:08.863Z,3.70
2018-11-03T00:35:37.057Z,3.50
2018-11-03T00:38:05.620Z,4.30
2018-11-03T00:40:33.791Z,4.75
2018-11-03T00:43:01.930Z,4.83
2018-11-03T00:45:30.201Z,4.20
2018-11-03T00:47:58.290Z,4.75
2018-11-03T00:50:26.474Z,5.47
2018-11-03T00:52:54.658Z,5.40
2018-11-03T00:55:22.847Z,6.35
2018-11-03T00:57:51.035Z,5.90
2018-11-03T01:00:19.451Z,5.20
2018-11-03T01:02:48.654Z,5.28
2018-11-03T01:05:16.869Z,5.08
2018-11-03T01:07:45.337Z,5.22
2018-11-03T01:10:13.515Z,7.25
2018-11-03T01:12:42.126Z,7.25
2018-11-03T01:15:16.050Z,6.40
2018-11-03T01:17:44.434Z,6.87
2018-11-03T01:20:13.961Z,5.87
2018-11-03T01:22:42.159Z,4.65
2018-11-03T01:25:10.538Z,5.37
2018-11-03T01:27:38.701Z,4.60
2018-11-03T01:30:09.699Z,4.80
2018-11-03T01:32:38.000Z,4.28
2018-11-03T01:35:06.970Z,4.80
2018-11-03T01:37:35.358Z,5.15
2018-11-03T01:40:03.562Z,5.03
2018-11-03T01:42:31.709Z,5.00
2018-11-03T01:44:59.929Z,5.33
2018-11-03T01:47:28.077Z,5.45
2018-11-03T01:49:56.274Z,5.62
2018-11-03T01:52:24.454Z,5.15
2018-11-03T01:54:52.554Z,5.40
2018-11-03T01:57:20.790Z,5.30
2018-11-03T01:59:48.933Z,5.22
2018-11-03T02:02:17.106Z,4.90
2018-11-03T02:04:45.291Z,4.90
2018-11-03T02:07:13.593Z,4.55
2018-11-03T02:09:41.774Z,4.00
2018-11-03T02:12:09.946Z,4.30
2018-11-03T02:14:38.138Z,4.83
2018-11-03T02:17:06.318Z,4.25
2018-11-03T02:19:34.542Z,4.20
2018-11-03T02:22:02.694Z,4.03
2018-11-03T02:24:30.887Z,4.20
2018-11-03T02:26:59.062Z,4.05
2018-11-03T02:29:27.158Z,4.45
2018-11-03T02:31:55.400Z,4.65
2018-11-03T02:34:23.535Z,4.17
2018-11-03T02:36:51.713Z,4.45
2018-11-03T02:39:19.918Z,4.25
2018-11-03T02:41:48.101Z,4.60
2018-11-03T02:44:16.309Z,4.53
2018-11-03T02:46:44.458Z,4.67
2018-11-03T02:49:12.610Z,4.70
2018-11-03T02:51:40.733Z,5.33
2018-11-03T02:54:08.949Z,5.28
2018-11-03T02:56:37.126Z,5.22
2018-11-03T02:59:05.331Z,4.28
2018-11-03T03:01:33.473Z,3.83
2018-11-03T03:04:01.570Z,4.30
2018-11-03T03:06:29.746Z,4.05
2018-11-03T03:08:57.845Z,5.03
2018-11-03T03:11:26.014Z,4.10
2018-11-03T03:13:54.099Z,3.40
2018-11-03T03:16:22.190Z,3.08
2018-11-03T03:18:50.366Z,3.50
2018-11-03T03:21:18.458Z,3.33
2018-11-03T03:23:46.542Z,3.92
2018-11-03T03:26:14.626Z,3.80
2018-11-03T03:28:42.829Z,3.83
2018-11-03T03:31:10.798Z,3.92
2018-11-03T03:33:38.975Z,4.37
2018-11-03T03:36:07.061Z,3.98
2018-11-03T03:38:35.137Z,3.80
2018-11-03T03:41:03.307Z,3.87
2018-11-03T03:43:31.451Z,3.50
2018-11-03T03:45:59.617Z,3.60
2018-11-03T03:48:27.790Z,3.80
2018-11-03T03:50:55.888Z,3.90
2018-11-03T03:53:23.957Z,4.03
2018-11-03T03:55:52.045Z,4.28
2018-11-03T03:58:20.124Z,4.42
2018-11-03T04:00:48.218Z,4.05
2018-11-03T04:03:16.292Z,3.52
2018-11-03T04:05:44.406Z,4.08
2018-11-03T04:08:12.575Z,4.25
2018-11-03T04:10:40.653Z,3.72
2018-11-03T04:13:08.733Z,6.42
2018-11-03T04:15:36.831Z,7.97
2018-11-03T04:18:05.096Z,8.38
2018-11-03T04:20:33.197Z,7.53
2018-11-03T04:23:01.281Z,7.58
2018-11-03T04:25:29.369Z,6.70
2018-11-03T04:27:57.588Z,7.05
2018-11-03T04:30:25.752Z,7.45
2018-11-03T04:32:53.931Z,5.75
2018-11-03T04:35:22.014Z,7.33
2018-11-03T04:37:50.097Z,7.67
2018-11-03T04:40:18.186Z,6.80
2018-11-03T04:42:46.259Z,6.60
2018-11-03T04:45:14.369Z,6.67
2018-11-03T04:47:42.446Z,5.75
2018-11-03T04:50:10.974Z,6.40
2018-11-03T04:52:39.250Z,6.22
2018-11-03T04:55:08.227Z,6.97
2018-11-03T04:57:36.323Z,7.62
2018-11-03T05:00:04.999Z,7.37
2018-11-03T05:02:33.094Z,7.28
2018-11-03T05:05:01.184Z,6.78
2018-11-03T05:07:29.275Z,6.42
2018-11-03T05:09:57.360Z,6.37
2018-11-03T05:12:25.419Z,7.15
2018-11-03T05:14:53.536Z,7.08
2018-11-03T05:17:21.719Z,7.90
2018-11-03T05:19:49.894Z,7.00
2018-11-03T05:22:18.006Z,6.83
2018-11-03T05:24:46.175Z,7.17
2018-11-03T05:27:14.370Z,8.10
2018-11-03T05:29:42.547Z,8.25
2018-11-03T05:32:10.746Z,7.28
2018-11-03T05:34:38.928Z,8.75
2018-11-03T05:37:07.247Z,8.33
2018-11-03T05:39:35.389Z,8.35
2018-11-03T05:42:03.486Z,8.00
2018-11-03T05:44:31.662Z,8.10
2018-11-03T05:46:59.757Z,8.05
2018-11-03T05:49:27.934Z,8.18
2018-11-03T05:51:56.958Z,9.00
2018-11-03T05:54:25.122Z,9.80
2018-11-03T05:56:53.225Z,8.28
2018-11-03T05:59:21.399Z,8.53
2018-11-03T06:01:49.494Z,8.90
2018-11-03T06:04:17.678Z,8.45
2018-11-03T06:06:45.762Z,7.67
2018-11-03T06:09:14.024Z,7.92
2018-11-03T06:11:42.136Z,7.80
2018-11-03T06:14:10.323Z,7.55
2018-11-03T06:16:38.513Z,7.90
2018-11-03T06:19:06.729Z,7.70
2018-11-03T06:21:35.018Z,8.90
2018-11-03T06:24:03.167Z,7.50
2018-11-03T06:26:31.261Z,8.38
2018-11-03T06:28:59.446Z,8.38
2018-11-03T06:31:27.630Z,8.28
2018-11-03T06:33:55.821Z,8.63
2018-11-03T06:36:23.934Z,7.90
2018-11-03T06:38:52.119Z,7.85
2018-11-03T06:41:20.187Z,8.10
2018-11-03T06:43:48.366Z,7.35
2018-11-03T06:46:16.552Z,7.53
2018-11-03T06:48:44.732Z,8.28
2018-11-03T06:51:12.818Z,7.50
2018-11-03T06:53:41.022Z,7.75
2018-11-03T06:56:09.126Z,7.30
2018-11-03T06:58:37.258Z,7.97
2018-11-03T07:01:05.494Z,7.25
2018-11-03T07:03:33.682Z,7.92
2018-11-03T07:06:01.850Z,9.50
2018-11-03T07:08:30.039Z,9.50
2018-11-03T07:10:58.215Z,10.75
2018-11-03T07:13:26.545Z,13.03
2018-11-03T07:15:54.591Z,12.65
2018-11-03T07:18:22.780Z,10.80
2018-11-03T07:20:50.962Z,10.95
2018-11-03T07:23:19.181Z,9.80
2018-11-03T07:25:47.323Z,9.85
2018-11-03T07:28:15.422Z,9.78
2018-11-03T07:30:43.662Z,10.65
2018-11-03T07:33:11.794Z,11.70
2018-11-03T07:35:39.990Z,11.73
2018-11-03T07:38:08.182Z,12.90
2018-11-03T07:40:36.368Z,12.60
2018-11-03T07:43:04.543Z,12.35
2018-11-03T07:45:32.723Z,13.70
2018-11-03T07:48:01.010Z,13.90
2018-11-03T07:50:29.106Z,13.22
2018-11-03T07:52:57.298Z,12.53
2018-11-03T07:55:25.490Z,12.10
2018-11-03T07:57:53.666Z,11.73
2018-11-03T08:00:21.940Z,11.85
2018-11-03T08:02:50.049Z,13.58
2018-11-03T08:05:18.222Z,14.00
2018-11-03T08:07:46.429Z,14.63
2018-11-03T08:10:14.639Z,17.52
2018-11-03T08:12:42.825Z,15.98
2018-11-03T08:15:11.505Z,15.95
2018-11-03T08:17:40.310Z,14.65
2018-11-03T08:20:09.927Z,13.75
2018-11-03T08:22:38.252Z,13.40
2018-11-03T08:25:06.507Z,14.18
2018-11-03T08:27:34.667Z,13.95
2018-11-03T08:30:02.751Z,13.58
2018-11-03T08:32:30.844Z,13.38
2018-11-03T08:34:59.014Z,14.43
2018-11-03T08:37:27.113Z,14.10
2018-11-03T08:39:55.278Z,13.75
2018-11-03T08:42:23.374Z,14.03
2018-11-03T08:44:51.478Z,13.00
2018-11-03T08:47:19.661Z,13.43
2018-11-03T08:49:47.874Z,13.43
2018-11-03T08:52:16.027Z,13.15
2018-11-03T08:54:44.203Z,14.03
2018-11-03T08:57:12.292Z,12.90
2018-11-03T08:59:40.494Z,13.30
2018-11-03T09:02:08.491Z,12.82
2018-11-03T09:04:36.680Z,12.43
2018-11-03T09:07:04.888Z,12.90
2018-11-03T09:09:33.037Z,13.05
2018-11-03T09:12:01.250Z,11.93
2018-11-03T09:14:29.441Z,12.73
2018-11-03T09:16:57.510Z,11.15
2018-11-03T09:19:25.744Z,12.45
2018-11-03T09:21:53.917Z,12.30
2018-11-03T09:24:22.038Z,12.98
2018-11-03T09:26:50.138Z,12.00
2018-11-03T09:29:18.372Z,11.73
2018-11-03T09:31:46.538Z,11.97
2018-11-03T09:34:15.281Z,11.83
2018-11-03T09:36:43.385Z,11.83
2018-11-03T09:39:11.887Z,12.43
2018-11-03T09:41:40.202Z,12.35
2018-11-03T09:44:08.362Z,12.95
2018-11-03T09:46:36.550Z,15.72
2018-11-03T09:49:05.210Z,12.50
2018-11-03T09:51:33.318Z,11.18
2018-11-03T09:54:01.410Z,9.95
2018-11-03T09:56:29.606Z,10.90
2018-11-03T09:58:57.682Z,10.82
2018-11-03T10:01:25.870Z,10.80
2018-11-03T10:03:54.066Z,10.25
2018-11-03T10:06:22.311Z,10.20
2018-11-03T10:08:50.437Z,10.63
2018-11-03T10:11:18.507Z,10.15
2018-11-03T10:13:46.714Z,10.00
2018-11-03T10:16:14.894Z,10.85
2018-11-03T10:18:43.219Z,11.30
2018-11-03T10:21:11.377Z,10.18
2018-11-03T10:23:39.566Z,10.68
2018-11-03T10:26:07.743Z,11.70
2018-11-03T10:28:36.115Z,10.38
2018-11-03T10:31:04.295Z,10.38
2018-11-03T10:33:32.433Z,16.23
2018-11-03T10:36:00.602Z,45.35
2018-11-03T10:38:28.782Z,19.32
2018-11-03T10:40:56.974Z,13.53
2018-11-03T10:43:25.162Z,11.45
2018-11-03T10:45:53.386Z,10.93
2018-11-03T10:48:21.540Z,10.95
2018-11-03T10:50:49.718Z,10.40
2018-11-03T10:53:17.940Z,11.35
2018-11-03T10:55:46.081Z,9.88
2018-11-03T10:58:14.281Z,9.38
2018-11-03T11:00:47.877Z,8.93
2018-11-03T11:03:21.466Z,9.33
2018-11-03T11:05:56.806Z,9.15
2018-11-03T11:08:30.773Z,8.90
2018-11-03T11:11:04.554Z,10.90
2018-11-03T11:13:34.453Z,10.53
2018-11-03T11:16:02.625Z,9.90
2018-11-03T11:18:30.810Z,9.35
2018-11-03T11:20:58.983Z,9.40
2018-11-03T11:23:27.214Z,10.20
2018-11-03T11:25:55.376Z,9.35
2018-11-03T11:28:23.558Z,8.65
2018-11-03T11:30:51.758Z,8.23
2018-11-03T11:33:19.938Z,9.60
2018-11-03T11:35:48.144Z,8.25
2018-11-03T11:38:16.438Z,9.55
2018-11-03T11:40:44.609Z,9.23
2018-11-03T11:43:13.886Z,9.48
2018-11-03T11:45:41.880Z,8.78
2018-11-03T11:48:10.152Z,9.10
2018-11-03T11:50:38.261Z,8.73
2018-11-03T11:53:06.670Z,9.20
2018-11-03T11:55:34.846Z,8.93
2018-11-03T11:58:03.015Z,8.78
2018-11-03T12:00:31.282Z,8.10
2018-11-03T12:02:59.523Z,6.97
2018-11-03T12:05:27.746Z,7.50
2018-11-03T12:07:55.881Z,7.58
2018-11-03T12:10:24.068Z,7.83
2018-11-03T12:12:52.255Z,9.83
2018-11-03T12:15:20.446Z,8.50
2018-11-03T12:17:48.619Z,8.50
2018-11-03T12:20:16.711Z,8.88
2018-11-03T12:22:44.916Z,8.10
2018-11-03T12:25:13.094Z,8.58
2018-11-03T12:27:41.393Z,7.87
2018-11-03T12:30:12.034Z,7.47
2018-11-03T12:32:40.534Z,7.42
2018-11-03T12:35:08.861Z,7.30
2018-11-03T12:37:37.515Z,7.95
2018-11-03T12:40:07.783Z,7.25
2018-11-03T12:42:35.982Z,7.22
2018-11-03T12:45:04.130Z,8.65
2018-11-03T12:47:32.317Z,8.58
2018-11-03T12:50:01.350Z,7.35
2018-11-03T12:52:30.835Z,8.95
2018-11-03T12:54:59.278Z,8.38
2018-11-03T12:57:27.646Z,7.85
2018-11-03T12:59:55.787Z,7.33
2018-11-03T13:02:23.873Z,7.30
2018-11-03T13:04:52.397Z,7.65
2018-11-03T13:07:20.546Z,6.87
2018-11-03T13:09:48.974Z,6.70
2018-11-03T13:12:17.104Z,8.05
2018-11-03T13:14:45.218Z,7.42
2018-11-03T13:17:13.399Z,7.42
2018-11-03T13:19:41.609Z,8.10
2018-11-03T13:22:10.010Z,8.30
2018-11-03T13:24:38.206Z,7.03
2018-11-03T13:27:06.360Z,6.90
2018-11-03T13:29:34.542Z,6.70
2018-11-03T13:32:02.718Z,6.90
2018-11-03T13:34:30.930Z,5.92
2018-11-03T13:36:59.094Z,6.55
2018-11-03T13:39:27.298Z,7.35
2018-11-03T13:41:55.470Z,11.10
2018-11-03T13:44:23.663Z,7.60
2018-11-03T13:46:51.847Z,9.48
2018-11-03T13:49:20.034Z,7.42
2018-11-03T13:51:49.170Z,6.70
2018-11-03T13:54:17.330Z,6.37
2018-11-03T13:56:45.538Z,7.08
2018-11-03T13:59:13.714Z,7.22
2018-11-03T14:01:41.906Z,7.33
2018-11-03T14:04:10.098Z,7.25
2018-11-03T14:06:38.266Z,6.72
2018-11-03T14:09:07.458Z,6.62
2018-11-03T14:11:35.555Z,7.80
2018-11-03T14:14:03.753Z,6.58
2018-11-03T14:16:31.956Z,7.40
2018-11-03T14:19:00.133Z,7.22
2018-11-03T14:21:28.317Z,6.85
2018-11-03T14:23:56.490Z,6.40
2018-11-03T14:26:24.682Z,7.40
2018-11-03T14:28:52.913Z,7.22
2018-11-03T14:31:21.050Z,7.58
2018-11-03T14:33:49.242Z,8.10
2018-11-03T14:36:17.501Z,7.72
2018-11-03T14:38:45.618Z,8.30
2018-11-03T14:41:13.799Z,7.47
2018-11-03T14:43:41.986Z,6.87
2018-11-03T14:46:10.190Z,6.80
2018-11-03T14:48:38.366Z,9.13
2018-11-03T14:51:06.622Z,9.35
2018-11-03T14:53:34.738Z,11.12
2018-11-03T14:56:02.931Z,9.40
2018-11-03T14:58:31.111Z,7.65
2018-11-03T15:00:59.301Z,7.42
2018-11-03T15:03:27.482Z,7.22
2018-11-03T15:05:55.674Z,7.42
2018-11-03T15:08:23.856Z,7.60
2018-11-03T15:10:52.045Z,8.03
2018-11-03T15:13:20.227Z,7.97
2018-11-03T15:15:48.318Z,8.33
2018-11-03T15:18:16.485Z,7.22
2018-11-03T15:20:44.586Z,7.28
2018-11-03T15:23:12.754Z,6.47
2018-11-03T15:25:40.865Z,7.50
2018-11-03T15:28:09.026Z,7.03
2018-11-03T15:30:37.123Z,7.35
2018-11-03T15:33:05.698Z,6.95
2018-11-03T15:35:33.810Z,7.03
2018-11-03T15:38:01.978Z,6.25
2018-11-03T15:40:30.086Z,6.45
2018-11-03T15:42:58.258Z,6.72
2018-11-03T15:45:26.354Z,6.67
2018-11-03T15:47:54.556Z,6.40
2018-11-03T15:50:22.723Z,6.10
2018-11-03T15:52:50.899Z,6.92
2018-11-03T15:55:19.000Z,6.72
2018-11-03T15:57:47.061Z,6.60
2018-11-03T16:00:16.726Z,6.78
2018-11-03T16:02:45.318Z,6.53
2018-11-03T16:05:13.618Z,6.92
2018-11-03T16:07:42.003Z,6.17
2018-11-03T16:10:10.911Z,5.85
2018-11-03T16:12:39.261Z,6.20
2018-11-03T16:15:08.293Z,6.47
2018-11-03T16:17:36.449Z,6.65
2018-11-03T16:20:05.234Z,7.92
2018-11-03T16:22:33.373Z,6.22
2018-11-03T16:25:01.559Z,6.00
2018-11-03T16:27:29.721Z,6.28
2018-11-03T16:29:57.894Z,4.80
2018-11-03T16:32:26.154Z,5.37
2018-11-03T16:34:54.169Z,5.00
2018-11-03T16:37:22.253Z,5.65
2018-11-03T16:39:50.337Z,6.05
2018-11-03T16:42:18.430Z,5.33
2018-11-03T16:44:46.505Z,5.12
2018-11-03T16:47:14.598Z,5.65
2018-11-03T16:49:42.674Z,6.17
2018-11-03T16:52:10.766Z,5.65
2018-11-03T16:54:38.849Z,5.53
2018-11-03T16:57:06.943Z,5.67
2018-11-03T16:59:35.118Z,9.20
2018-11-03T17:02:03.238Z,20.72
2018-11-03T17:04:31.408Z,35.75
2018-11-03T17:06:59.678Z,29.00
2018-11-03T17:09:27.786Z,23.07
2018-11-03T17:11:55.956Z,17.57
2018-11-03T17:14:24.151Z,18.92
2018-11-03T17:16:52.342Z,17.65
2018-11-03T17:19:20.534Z,14.30
2018-11-03T17:21:48.617Z,11.18
2018-11-03T17:24:16.797Z,10.03
2018-11-03T17:26:44.992Z,8.78
2018-11-03T17:29:13.180Z,8.30
2018-11-03T17:31:41.419Z,8.93
2018-11-03T17:34:09.538Z,7.90
2018-11-03T17:36:37.750Z,7.62
2018-11-03T17:39:07.753Z,6.78
2018-11-03T17:41:35.942Z,6.87
2018-11-03T17:44:04.399Z,7.15
2018-11-03T17:46:32.574Z,7.37
2018-11-03T17:49:00.716Z,7.97
2018-11-03T17:51:28.801Z,7.10
2018-11-03T17:53:56.973Z,8.10
2018-11-03T17:56:25.070Z,7.30
2018-11-03T17:58:53.247Z,7.95
2018-11-03T18:01:21.524Z,7.40
2018-11-03T18:03:49.517Z,8.03
2018-11-03T18:06:17.696Z,8.08
2018-11-03T18:08:45.790Z,8.65
2018-11-03T18:11:13.878Z,7.87
2018-11-03T18:13:42.062Z,7.78
2018-11-03T18:16:10.158Z,8.78
2018-11-03T18:18:38.342Z,9.08
2018-11-03T18:21:06.536Z,8.85
2018-11-03T18:23:34.717Z,8.98
2018-11-03T18:26:02.969Z,9.63
2018-11-03T18:28:31.163Z,9.28
2018-11-03T18:30:59.351Z,9.70
2018-11-03T18:33:27.636Z,8.78
2018-11-03T18:35:55.646Z,9.23
2018-11-03T18:38:23.854Z,10.28
2018-11-03T18:40:52.015Z,9.85
2018-11-03T18:43:20.128Z,10.00
2018-11-03T18:45:48.289Z,9.43
2018-11-03T18:48:16.398Z,9.55
2018-11-03T18:50:44.573Z,9.00
2018-11-03T18:53:12.770Z,10.68
2018-11-03T18:55:40.949Z,10.03
2018-11-03T18:58:09.131Z,9.90
2018-11-03T19:00:37.308Z,9.30
2018-11-03T19:03:05.421Z,9.88
2018-11-03T19:05:33.643Z,9.30
2018-11-03T19:08:01.770Z,10.80
2018-11-03T19:10:30.019Z,8.90
2018-11-03T19:12:58.178Z,10.55
2018-11-03T19:15:26.336Z,9.93
2018-11-03T19:17:54.522Z,10.60
2018-11-03T19:20:22.706Z,10.88
2018-11-03T19:22:50.791Z,10.53
2018-11-03T19:25:18.983Z,10.90
2018-11-03T19:27:47.172Z,11.35
2018-11-03T19:30:15.435Z,11.60
2018-11-03T19:32:44.489Z,12.18
2018-11-03T19:35:12.641Z,11.25
2018-11-03T19:37:41.441Z,10.75
2018-11-03T19:40:10.894Z,10.50
2018-11-03T19:42:39.598Z,10.50
2018-11-03T19:45:07.753Z,11.80
2018-11-03T19:47:36.078Z,11.05
2018-11-03T19:50:04.810Z,11.12
2018-11-03T19:52:32.966Z,11.15
2018-11-03T19:55:01.110Z,10.90
2018-11-03T19:57:29.306Z,11.57
2018-11-03T19:59:57.478Z,11.18
2018-11-03T20:02:25.599Z,11.08
2018-11-03T20:04:53.758Z,10.63
2018-11-03T20:07:21.954Z,11.55
2018-11-03T20:09:50.134Z,10.50
2018-11-03T20:12:18.336Z,11.22
2018-11-03T20:14:46.515Z,11.00
2018-11-03T20:17:14.707Z,11.55
2018-11-03T20:19:42.882Z,10.40
2018-11-03T20:22:11.078Z,10.78
2018-11-03T20:24:39.253Z,11.70
2018-11-03T20:27:07.438Z,11.33
2018-11-03T20:29:35.641Z,10.55
2018-11-03T20:32:03.939Z,11.28
2018-11-03T20:34:32.006Z,11.22
2018-11-03T20:37:00.187Z,10.63
2018-11-03T20:39:28.378Z,10.78
2018-11-03T20:41:56.633Z,11.83
2018-11-03T20:44:24.751Z,12.00
2018-11-03T20:46:52.934Z,11.85
2018-11-03T20:49:21.130Z,11.18
2018-11-03T20:51:49.310Z,11.53
2018-11-03T20:54:17.507Z,11.90
2018-11-03T20:56:45.690Z,12.15
2018-11-03T20:59:13.879Z,11.55
2018-11-03T21:01:42.107Z,11.75
2018-11-03T21:04:10.177Z,11.38
2018-11-03T21:06:38.570Z,11.55
2018-11-03T21:09:07.773Z,11.50
2018-11-03T21:11:35.928Z,11.73
2018-11-03T21:14:04.186Z,12.33
2018-11-03T21:16:32.406Z,10.72
2018-11-03T21:19:00.507Z,12.20
2018-11-03T21:21:28.702Z,12.25
2018-11-03T21:23:56.930Z,11.45
2018-11-03T21:26:25.051Z,11.68
2018-11-03T21:28:53.473Z,12.55
2018-11-03T21:31:21.631Z,11.45
2018-11-03T21:33:49.833Z,11.75
2018-11-03T21:36:17.994Z,11.48
2018-11-03T21:38:46.162Z,11.08
2018-11-03T21:41:14.286Z,11.83
2018-11-03T21:43:43.514Z,11.88
2018-11-03T21:46:11.800Z,12.07
2018-11-03T21:48:39.866Z,11.60
2018-11-03T21:51:08.066Z,11.97
2018-11-03T21:53:36.241Z,12.63
2018-11-03T21:56:04.777Z,12.75
2018-11-03T21:58:32.831Z,12.40
2018-11-03T22:01:00.989Z,11.60
2018-11-03T22:03:29.093Z,12.47
2018-11-03T22:05:57.278Z,13.13
2018-11-03T22:08:25.463Z,13.22
2018-11-03T22:10:53.643Z,13.45
2018-11-03T22:13:21.833Z,12.85
2018-11-03T22:15:50.090Z,12.90
2018-11-03T22:18:18.106Z,12.82
2018-11-03T22:20:46.297Z,13.08
2018-11-03T22:23:14.493Z,12.23
2018-11-03T22:25:42.666Z,12.18
2018-11-03T22:28:10.883Z,12.60
2018-11-03T22:30:39.061Z,11.57
2018-11-03T22:33:07.223Z,12.40
2018-11-03T22:35:35.418Z,11.83
2018-11-03T22:38:03.603Z,12.63
2018-11-03T22:40:31.814Z,11.95
2018-11-03T22:42:59.971Z,11.97
2018-11-03T22:45:28.161Z,11.93
2018-11-03T22:47:56.349Z,12.60
2018-11-03T22:50:24.543Z,12.68
2018-11-03T22:52:52.714Z,13.48
2018-11-03T22:55:20.807Z,12.55
2018-11-03T22:57:49.012Z,12.37
2018-11-03T23:00:17.306Z,13.43
2018-11-03T23:02:45.474Z,11.33
2018-11-03T23:05:14.099Z,13.05
2018-11-03T23:07:42.393Z,12.05
2018-11-03T23:10:11.472Z,12.65
2018-11-03T23:12:39.720Z,12.55
2018-11-03T23:15:08.379Z,12.40
2018-11-03T23:17:36.536Z,12.75
2018-11-03T23:20:06.281Z,12.18
2018-11-03T23:22:34.346Z,12.73
2018-11-03T23:25:02.538Z,12.80
2018-11-03T23:27:30.709Z,12.35
2018-11-03T23:29:59.140Z,12.35
2018-11-03T23:32:27.094Z,12.93
2018-11-03T23:34:55.286Z,12.50
2018-11-03T23:37:23.470Z,12.88
2018-11-03T23:39:51.657Z,12.98
2018-11-03T23:42:19.838Z,12.43
2018-11-03T23:44:48.053Z,12.50
2018-11-03T23:47:16.206Z,11.55
2018-11-03T23:49:44.402Z,12.33
2018-11-03T23:52:12.582Z,12.50
2018-11-03T23:54:40.790Z,12.47
2018-11-03T23:57:08.966Z,13.05
2018-11-03T23:59:37.162Z,12.55
